Time;durP1;ratioP1;P1;durP2;ratioP2;P2;SDS_P1;SDS_P2;PMS_P1;PMS_P2;Temp;Humidity;BMP_temperature;BMP_pressure;BME280_temperature;BME280_humidity;BME280_pressure;Samples;Min_cycle;Max_cycle;Signal;HPM_P1;HPM_P2
2022/11/12 00:00:31;;;;;;;19.35;13.00;;;8.50;99.90;;;;;;5016452;28;20041;-79
2022/11/12 00:02:57;;;;;;;15.73;10.70;;;8.60;99.90;;;;;;5010652;28;20588;-81
2022/11/12 00:05:24;;;;;;;16.10;10.55;;;8.50;99.90;;;;;;5000225;28;20464;-81
2022/11/12 00:07:49;;;;;;;19.95;12.25;;;8.70;99.90;;;;;;5006797;28;20041;-80
2022/11/12 00:10:15;;;;;;;18.15;12.18;;;8.50;99.90;;;;;;5009298;28;20033;-82
2022/11/12 00:12:41;;;;;;;16.85;11.75;;;8.50;99.90;;;;;;5009670;28;20038;-81
2022/11/12 00:15:07;;;;;;;17.80;11.00;;;8.30;99.90;;;;;;5012256;28;20040;-81
2022/11/12 00:17:33;;;;;;;15.57;10.95;;;8.20;99.90;;;;;;5010618;28;20049;-81
2022/11/12 00:19:58;;;;;;;18.25;11.43;;;8.50;99.90;;;;;;4994376;28;20433;-80
2022/11/12 00:22:24;;;;;;;17.45;11.25;;;8.10;99.90;;;;;;5014190;28;20041;-80
2022/11/12 00:24:50;;;;;;;17.58;11.75;;;8.00;99.90;;;;;;5015685;28;20049;-80
2022/11/12 00:27:16;;;;;;;19.25;11.90;;;8.00;99.90;;;;;;4995978;28;20034;-80
2022/11/12 00:29:41;;;;;;;21.30;11.80;;;7.90;99.90;;;;;;4998330;28;20480;-81
2022/11/12 00:32:08;;;;;;;21.23;12.18;;;7.90;99.90;;;;;;4983131;28;20033;-79
2022/11/12 00:34:35;;;;;;;20.02;12.90;;;8.20;99.90;;;;;;4994869;28;20252;-80
2022/11/12 00:37:01;;;;;;;20.15;12.30;;;7.80;99.90;;;;;;4995616;28;20041;-80
2022/11/12 00:39:27;;;;;;;17.05;10.45;;;7.70;99.90;;;;;;5005886;28;20034;-79
2022/11/12 00:41:53;;;;;;;14.20;10.20;;;7.70;99.90;;;;;;5025342;28;20099;-81
2022/11/12 00:44:19;;;;;;;20.90;12.45;;;7.60;99.90;;;;;;5013837;28;20363;-80
2022/11/12 00:46:45;;;;;;;18.67;12.25;;;7.70;99.90;;;;;;5012273;28;20124;-80
2022/11/12 00:49:11;;;;;;;20.52;13.00;;;7.70;99.90;;;;;;4996401;28;20172;-80
2022/11/12 00:51:37;;;;;;;15.50;11.35;;;7.70;99.90;;;;;;4995375;28;20159;-80
2022/11/12 00:54:04;;;;;;;16.20;10.90;;;7.70;99.90;;;;;;5013037;28;20172;-80
2022/11/12 00:56:29;;;;;;;18.83;10.95;;;7.70;99.90;;;;;;5011166;28;20075;-81
2022/11/12 00:58:56;;;;;;;17.60;12.32;;;7.70;99.90;;;;;;4980790;28;20105;-79
2022/11/12 01:01:22;;;;;;;15.95;11.07;;;7.80;99.90;;;;;;4990479;28;20060;-81
2022/11/12 01:03:47;;;;;;;16.10;11.95;;;7.70;99.90;;;;;;5013892;28;20070;-80
2022/11/12 01:06:17;;;;;;;16.83;11.75;;;7.60;99.90;;;;;;5007466;28;20568;-80
2022/11/12 01:08:42;;;;;;;16.77;11.30;;;7.60;99.90;;;;;;5025328;28;20091;-81
2022/11/12 01:11:28;;;;;;;18.23;11.98;;;7.60;99.90;;;;;;5006942;28;20037;-81
2022/11/12 01:14:07;;;;;;;14.48;10.60;;;7.60;99.90;;;;;;5008035;28;20045;-80
2022/11/12 01:16:41;;;;;;;15.48;11.32;;;7.50;99.90;;;;;;5011860;28;20083;-80
2022/11/12 01:19:09;;;;;;;16.08;11.02;;;7.60;99.90;;;;;;4993027;28;20033;-80
2022/11/12 01:21:38;;;;;;;15.77;10.40;;;7.70;99.90;;;;;;5010487;28;20073;-81
2022/11/12 01:24:04;;;;;;;18.20;12.40;;;7.70;99.90;;;;;;4997159;28;20048;-79
2022/11/12 01:26:30;;;;;;;13.90;11.10;;;7.70;99.90;;;;;;4998864;28;20105;-80
2022/11/12 01:28:56;;;;;;;15.48;10.25;;;7.60;99.90;;;;;;5016445;28;20549;-80
2022/11/12 01:31:25;;;;;;;15.30;10.63;;;7.60;99.90;;;;;;5005551;28;20093;-80
2022/11/12 01:33:57;;;;;;;17.73;11.95;;;7.60;99.90;;;;;;5023827;28;20068;-80
2022/11/12 01:36:24;;;;;;;18.98;12.32;;;7.60;99.90;;;;;;5023363;28;20048;-81
2022/11/12 01:38:51;;;;;;;17.35;11.55;;;7.50;99.90;;;;;;5005449;28;20041;-80
2022/11/12 01:41:26;;;;;;;20.00;11.63;;;7.60;99.90;;;;;;5019970;28;20060;-80
2022/11/12 01:44:29;;;;;;;16.83;11.60;;;7.60;99.90;;;;;;5004640;28;20033;-80
2022/11/12 01:47:15;;;;;;;15.77;10.95;;;7.70;99.90;;;;;;4980317;28;20056;-79
2022/11/12 01:49:55;;;;;;;17.15;12.50;;;7.60;99.90;;;;;;5021800;28;20057;-81
2022/11/12 01:52:31;;;;;;;22.50;13.95;;;7.60;99.90;;;;;;5021866;28;20048;-80
2022/11/12 01:55:08;;;;;;;17.85;12.65;;;7.50;99.90;;;;;;5019649;28;20037;-80
2022/11/12 01:57:40;;;;;;;18.38;12.18;;;7.50;99.90;;;;;;5024156;28;20037;-80
2022/11/12 02:00:09;;;;;;;18.55;12.32;;;7.50;99.90;;;;;;5001503;28;20140;-81
2022/11/12 02:02:36;;;;;;;18.30;13.48;;;7.50;99.90;;;;;;5013493;28;20076;-79
2022/11/12 02:05:06;;;;;;;20.30;12.85;;;7.50;99.90;;;;;;5016987;28;20038;-81
2022/11/12 02:07:33;;;;;;;18.77;13.15;;;7.50;99.90;;;;;;5002052;28;20037;-81
2022/11/12 02:10:01;;;;;;;15.68;11.15;;;7.50;99.90;;;;;;5001719;28;20463;-80
2022/11/12 02:15:12;;;;;;;18.60;12.60;;;7.40;99.90;;;;;;5017246;28;20041;-78
2022/11/12 02:17:38;;;;;;;17.52;13.25;;;7.40;99.90;;;;;;5001430;28;20493;-80
2022/11/12 02:20:07;;;;;;;17.80;11.85;;;7.40;99.90;;;;;;5015826;28;20268;-79
2022/11/12 02:22:32;;;;;;;16.70;12.40;;;7.30;99.90;;;;;;5017093;28;20124;-82
2022/11/12 02:24:58;;;;;;;17.90;13.05;;;7.30;99.90;;;;;;4999060;28;20065;-80
2022/11/12 02:27:24;;;;;;;21.63;14.85;;;7.60;99.90;;;;;;5027055;28;20045;-81
2022/11/12 02:29:50;;;;;;;18.83;12.98;;;7.40;99.90;;;;;;5015183;28;20034;-80
2022/11/12 02:32:16;;;;;;;20.95;13.10;;;7.40;99.90;;;;;;5010634;28;20091;-81
2022/11/12 02:34:41;;;;;;;22.58;13.23;;;7.40;99.90;;;;;;4988692;28;20084;-80
2022/11/12 02:37:07;;;;;;;18.95;12.13;;;7.40;99.90;;;;;;5003378;28;20033;-80
2022/11/12 02:39:32;;;;;;;21.52;15.93;;;7.30;99.90;;;;;;4988374;28;20048;-81
2022/11/12 02:41:58;;;;;;;15.32;12.35;;;7.30;99.90;;;;;;5002066;28;20481;-79
2022/11/12 02:44:24;;;;;;;21.15;12.98;;;7.30;99.90;;;;;;5036685;28;20037;-80
2022/11/12 02:46:50;;;;;;;20.58;13.38;;;7.30;99.90;;;;;;4988042;28;20497;-79
2022/11/12 02:49:15;;;;;;;23.73;15.35;;;7.40;99.90;;;;;;5003054;28;20064;-80
2022/11/12 02:51:41;;;;;;;15.25;11.93;;;7.40;99.90;;;;;;5018608;28;20056;-80
2022/11/12 02:54:07;;;;;;;19.67;13.77;;;7.50;99.90;;;;;;5016042;28;20097;-81
2022/11/12 02:56:34;;;;;;;23.05;15.90;;;7.40;99.90;;;;;;5023785;28;20041;-79
2022/11/12 02:59:00;;;;;;;15.45;11.65;;;7.50;99.90;;;;;;5011941;28;20669;-79
2022/11/12 03:01:25;;;;;;;15.55;11.98;;;7.40;99.90;;;;;;5021827;28;20033;-80
2022/11/12 03:03:51;;;;;;;21.25;13.65;;;7.60;99.90;;;;;;5000285;28;20037;-78
2022/11/12 03:06:17;;;;;;;23.55;15.15;;;7.60;99.90;;;;;;5004233;28;20081;-80
2022/11/12 03:08:43;;;;;;;28.02;18.27;;;7.80;99.90;;;;;;5015473;28;20038;-80
2022/11/12 03:11:15;;;;;;;21.17;14.57;;;7.70;99.90;;;;;;5002169;28;20041;-80
2022/11/12 03:13:41;;;;;;;15.52;11.43;;;7.60;99.90;;;;;;5032829;28;20056;-80
2022/11/12 03:16:07;;;;;;;18.23;13.32;;;7.60;99.90;;;;;;5003307;28;20041;-78
2022/11/12 03:18:32;;;;;;;18.60;13.65;;;7.60;99.90;;;;;;5000830;28;20402;-80
2022/11/12 03:20:58;;;;;;;19.55;13.57;;;7.70;99.90;;;;;;5002213;28;20099;-80
2022/11/12 03:23:25;;;;;;;18.83;13.40;;;8.10;99.90;;;;;;5002072;28;20108;-78
2022/11/12 03:25:51;;;;;;;23.63;16.48;;;7.70;99.90;;;;;;5005740;28;20061;-77
2022/11/12 03:28:17;;;;;;;23.30;15.70;;;7.70;99.90;;;;;;5014400;28;20390;-80
2022/11/12 03:30:44;;;;;;;19.15;12.07;;;7.70;99.90;;;;;;5038111;28;20097;-79
2022/11/12 03:33:12;;;;;;;25.83;17.02;;;7.80;99.90;;;;;;4986879;28;20040;-80
2022/11/12 03:35:38;;;;;;;19.00;14.52;;;7.80;99.90;;;;;;5048755;28;20048;-78
2022/11/12 03:38:04;;;;;;;24.23;15.35;;;7.80;99.90;;;;;;5004091;28;20115;-80
2022/11/12 03:40:31;;;;;;;23.17;16.05;;;7.80;99.90;;;;;;5003287;28;20176;-78
2022/11/12 03:42:58;;;;;;;20.35;15.52;;;7.80;99.90;;;;;;4997662;28;20629;-80
2022/11/12 03:45:25;;;;;;;23.05;15.73;;;7.90;99.90;;;;;;5020672;28;20123;-79
2022/11/12 03:47:53;;;;;;;18.73;14.63;;;7.90;99.90;;;;;;5020550;28;20026;-77
2022/11/12 03:50:20;;;;;;;19.25;14.75;;;7.90;99.90;;;;;;5035912;28;20622;-80
2022/11/12 03:52:51;;;;;;;22.08;15.60;;;7.90;99.90;;;;;;5018639;28;20045;-80
2022/11/12 03:55:19;;;;;;;23.13;16.25;;;7.90;99.90;;;;;;5053583;28;20076;-79
2022/11/12 03:57:47;;;;;;;22.52;15.57;;;7.90;99.90;;;;;;5018614;28;20041;-80
2022/11/12 04:00:13;;;;;;;23.88;14.75;;;7.90;99.90;;;;;;5014069;28;20088;-80
2022/11/12 04:02:39;;;;;;;25.48;16.90;;;7.90;99.90;;;;;;5015008;28;20770;-80
2022/11/12 04:10:45;;;;;;;28.77;17.20;;;7.90;99.90;;;;;;5013890;28;20563;-79
2022/11/12 04:13:29;;;;;;;25.20;15.40;;;8.00;99.90;;;;;;5000912;28;20072;-80
2022/11/12 04:21:54;;;;;;;45.25;19.45;;;8.00;99.90;;;;;;5052043;28;20048;-80
2022/11/12 04:27:27;;;;;;;39.67;17.83;;;8.10;99.90;;;;;;5019575;28;20109;-80
2022/11/12 04:32:49;;;;;;;36.10;18.23;;;8.10;99.90;;;;;;5019864;28;20055;-80
2022/11/12 04:35:15;;;;;;;46.17;19.70;;;8.10;99.90;;;;;;5019549;28;20041;-79
2022/11/12 04:37:44;;;;;;;45.10;18.40;;;8.10;99.90;;;;;;5019337;28;20049;-80
2022/11/12 04:46:00;;;;;;;66.53;24.73;;;8.20;99.90;;;;;;5018953;28;20133;-79
2022/11/12 04:48:26;;;;;;;63.25;25.13;;;8.20;99.90;;;;;;5008864;28;20065;-80
2022/11/12 04:50:55;;;;;;;61.53;24.40;;;8.20;99.90;;;;;;5014622;28;20062;-78
2022/11/12 04:53:22;;;;;;;56.72;23.05;;;8.20;99.90;;;;;;5012056;28;20040;-80
2022/11/12 04:55:52;;;;;;;43.65;20.05;;;8.20;99.90;;;;;;5034173;28;20044;-80
2022/11/12 04:58:18;;;;;;;46.22;22.70;;;8.20;99.90;;;;;;5047810;28;20045;-80
2022/11/12 05:00:44;;;;;;;49.13;22.90;;;8.30;99.90;;;;;;5015994;28;20531;-80
2022/11/12 05:03:10;;;;;;;46.53;21.48;;;8.30;99.90;;;;;;4975287;28;20045;-80
2022/11/12 05:05:36;;;;;;;44.55;21.67;;;8.30;99.90;;;;;;5001866;28;20168;-80
2022/11/12 05:08:02;;;;;;;54.08;22.63;;;8.40;99.90;;;;;;4994460;28;20037;-78
2022/11/12 05:10:29;;;;;;;51.42;23.88;;;8.30;99.90;;;;;;4999572;28;20033;-80
2022/11/12 05:12:55;;;;;;;36.05;19.17;;;8.30;99.90;;;;;;5013712;28;20048;-78
2022/11/12 05:15:20;;;;;;;40.70;20.67;;;8.30;99.90;;;;;;5017986;28;20046;-80
2022/11/12 05:17:46;;;;;;;48.22;22.15;;;8.30;99.90;;;;;;5016134;28;20037;-79
2022/11/12 05:20:13;;;;;;;41.90;22.77;;;8.40;99.90;;;;;;4999580;28;20049;-79
2022/11/12 05:22:38;;;;;;;39.83;20.40;;;8.40;99.90;;;;;;5010857;28;20033;-80
2022/11/12 05:25:05;;;;;;;63.15;25.25;;;8.40;99.90;;;;;;5012221;28;20049;-78
2022/11/12 05:27:31;;;;;;;37.22;20.95;;;8.40;99.90;;;;;;4997628;28;20109;-80
2022/11/12 05:29:57;;;;;;;60.13;24.27;;;8.60;99.90;;;;;;5015522;28;20061;-81
2022/11/12 05:32:22;;;;;;;93.03;26.98;;;8.50;99.90;;;;;;4986088;28;20040;-80
2022/11/12 05:34:48;;;;;;;69.65;24.10;;;8.60;99.90;;;;;;5033188;28;20060;-80
2022/11/12 05:37:14;;;;;;;51.25;23.92;;;8.50;99.90;;;;;;5030067;28;20029;-79
2022/11/12 05:39:40;;;;;;;75.13;27.05;;;8.50;99.90;;;;;;4995842;28;20065;-80
2022/11/12 05:42:06;;;;;;;46.63;23.27;;;8.60;99.90;;;;;;4982865;28;20040;-80
2022/11/12 05:44:32;;;;;;;81.32;26.95;;;8.90;99.90;;;;;;5021507;28;20061;-78
2022/11/12 05:46:58;;;;;;;105.00;28.23;;;8.60;99.90;;;;;;5025856;28;20053;-80
2022/11/12 05:49:23;;;;;;;55.28;25.40;;;8.60;99.90;;;;;;5020374;28;20041;-78
2022/11/12 05:51:50;;;;;;;62.80;24.80;;;8.60;99.90;;;;;;5017038;28;20033;-80
2022/11/12 05:54:17;;;;;;;61.38;25.75;;;8.70;99.90;;;;;;5019219;28;20151;-79
2022/11/12 05:56:42;;;;;;;47.60;22.73;;;8.60;99.90;;;;;;5050857;28;20051;-81
2022/11/12 05:59:10;;;;;;;59.63;23.83;;;8.60;99.90;;;;;;5063001;22;20563;-57
2022/11/12 06:01:42;;;;;;;49.22;24.05;;;8.60;99.90;;;;;;5055126;28;20514;-57
2022/11/12 06:04:10;;;;;;;55.45;25.20;;;8.60;99.90;;;;;;5055613;28;20155;-57
2022/11/12 06:06:37;;;;;;;53.75;23.40;;;8.70;99.90;;;;;;5060919;28;20048;-57
2022/11/12 06:09:03;;;;;;;54.22;25.20;;;8.70;99.90;;;;;;5036717;28;20483;-56
2022/11/12 06:11:29;;;;;;;64.95;25.67;;;8.70;99.90;;;;;;5061182;28;20047;-57
2022/11/12 06:13:54;;;;;;;68.97;28.25;;;8.70;99.90;;;;;;5059408;28;21581;-58
2022/11/12 06:16:20;;;;;;;57.25;25.52;;;8.70;99.90;;;;;;5036255;28;20057;-52
2022/11/12 06:18:46;;;;;;;47.35;24.08;;;8.70;99.90;;;;;;5023822;28;20392;-56
2022/11/12 06:21:26;;;;;;;50.80;24.45;;;8.70;99.90;;;;;;5041854;28;20037;-59
2022/11/12 06:23:57;;;;;;;59.78;27.00;;;8.70;99.90;;;;;;5043560;28;20041;-56
2022/11/12 06:26:26;;;;;;;52.97;26.58;;;8.70;99.90;;;;;;5021068;28;20422;-57
2022/11/12 06:28:51;;;;;;;70.32;29.27;;;8.70;99.90;;;;;;5044617;28;20479;-56
2022/11/12 06:31:18;;;;;;;74.55;29.35;;;8.70;99.90;;;;;;5020423;28;20091;-57
2022/11/12 06:33:45;;;;;;;81.07;28.67;;;8.70;99.90;;;;;;5035836;28;20127;-56
2022/11/12 06:36:13;;;;;;;51.58;24.75;;;8.70;99.90;;;;;;5039160;28;20435;-57
2022/11/12 06:38:40;;;;;;;71.10;29.38;;;8.70;99.90;;;;;;5042215;28;20492;-57
2022/11/12 06:41:07;;;;;;;88.75;31.52;;;8.70;99.90;;;;;;5060752;28;20090;-53
2022/11/12 06:43:34;;;;;;;90.68;31.40;;;8.70;99.90;;;;;;5063313;28;20048;-57
2022/11/12 06:46:05;;;;;;;139.10;32.85;;;8.70;99.90;;;;;;5057719;28;20041;-53
2022/11/12 06:48:31;;;;;;;101.53;31.58;;;8.70;99.90;;;;;;5035237;28;20045;-56
2022/11/12 06:51:05;;;;;;;98.15;32.03;;;8.70;99.90;;;;;;5054191;28;20038;-56
2022/11/12 06:53:31;;;;;;;65.70;29.33;;;8.70;99.90;;;;;;5053705;28;20082;-55
2022/11/12 06:56:01;;;;;;;133.77;34.13;;;8.70;99.90;;;;;;5040060;28;20060;-55
2022/11/12 06:58:27;;;;;;;81.55;33.20;;;8.60;99.90;;;;;;5039730;28;20056;-54
2022/11/12 07:00:53;;;;;;;126.65;36.42;;;8.70;99.90;;;;;;5041807;28;20067;-57
2022/11/12 07:03:18;;;;;;;98.97;32.80;;;8.70;99.90;;;;;;5019885;28;20077;-54
2022/11/12 07:05:44;;;;;;;84.90;32.75;;;8.60;99.90;;;;;;5064282;28;20466;-54
2022/11/12 07:08:10;;;;;;;108.72;34.00;;;8.60;99.90;;;;;;5044586;28;20310;-55
2022/11/12 07:10:35;;;;;;;86.18;31.65;;;8.70;99.90;;;;;;5065275;28;20483;-53
2022/11/12 07:13:01;;;;;;;65.43;32.05;;;8.60;99.90;;;;;;5011563;28;20049;-57
2022/11/12 07:15:27;;;;;;;74.95;31.55;;;8.70;99.90;;;;;;5059028;28;20484;-56
2022/11/12 07:17:52;;;;;;;92.95;33.75;;;8.70;99.90;;;;;;5056472;28;20052;-57
2022/11/12 07:20:18;;;;;;;90.53;31.42;;;8.70;99.90;;;;;;5056443;28;20120;-56
2022/11/12 07:22:44;;;;;;;77.13;30.58;;;8.70;99.90;;;;;;5056518;28;20072;-57
2022/11/12 07:25:10;;;;;;;84.63;31.83;;;8.60;99.90;;;;;;5060013;28;20052;-57
2022/11/12 07:27:35;;;;;;;75.63;29.98;;;8.60;99.90;;;;;;5041935;28;20032;-56
2022/11/12 07:30:01;;;;;;;93.85;31.67;;;8.60;99.90;;;;;;5057885;28;20135;-53
2022/11/12 07:32:27;;;;;;;73.07;29.27;;;8.60;99.90;;;;;;5056631;28;20059;-57
2022/11/12 07:34:52;;;;;;;78.47;28.27;;;8.60;99.90;;;;;;5060956;28;20040;-56
2022/11/12 07:37:18;;;;;;;45.83;23.77;;;8.60;99.90;;;;;;5053097;28;20083;-56
2022/11/12 07:39:44;;;;;;;44.17;25.15;;;8.60;99.90;;;;;;5059993;28;20505;-52
2022/11/12 07:42:10;;;;;;;69.50;29.98;;;8.60;99.90;;;;;;5057928;28;20495;-56
2022/11/12 07:44:35;;;;;;;57.80;27.55;;;8.60;99.90;;;;;;5060499;28;20130;-56
2022/11/12 07:47:01;;;;;;;75.68;33.45;;;8.70;99.90;;;;;;5064718;28;20043;-57
2022/11/12 07:49:27;;;;;;;59.15;25.90;;;8.70;99.90;;;;;;5060470;28;20395;-56
2022/11/12 07:51:52;;;;;;;61.00;29.35;;;8.60;99.90;;;;;;5061176;28;20072;-56
2022/11/12 07:54:18;;;;;;;78.57;31.77;;;8.60;99.90;;;;;;5062943;28;20040;-56
2022/11/12 07:56:44;;;;;;;60.22;27.73;;;8.60;99.90;;;;;;5039530;28;21379;-56
2022/11/12 07:59:10;;;;;;;75.75;31.30;;;8.70;99.90;;;;;;5042422;28;20574;-55
2022/11/12 08:01:38;;;;;;;63.40;26.08;;;8.70;99.90;;;;;;5067109;28;20128;-56
2022/11/12 08:04:06;;;;;;;81.88;34.42;;;8.70;99.90;;;;;;5061385;28;20120;-54
2022/11/12 08:06:32;;;;;;;54.00;28.58;;;8.60;99.90;;;;;;5062655;28;20040;-57
2022/11/12 08:09:00;;;;;;;62.85;31.42;;;8.70;99.90;;;;;;5060572;28;20063;-56
2022/11/12 08:11:25;;;;;;;59.13;29.90;;;8.70;99.90;;;;;;5058985;28;20044;-55
2022/11/12 08:13:51;;;;;;;59.28;31.30;;;8.70;99.90;;;;;;5042851;28;20091;-57
2022/11/12 08:16:18;;;;;;;58.42;30.00;;;8.70;99.90;;;;;;5038726;28;20032;-56
2022/11/12 08:18:44;;;;;;;67.20;30.15;;;8.70;99.90;;;;;;5055274;28;20045;-55
2022/11/12 08:21:14;;;;;;;47.03;26.77;;;8.70;99.90;;;;;;5055541;28;20033;-57
2022/11/12 08:23:40;;;;;;;58.35;28.45;;;8.70;99.90;;;;;;5042071;28;20057;-56
2022/11/12 08:26:09;;;;;;;51.67;25.95;;;8.70;99.90;;;;;;5064040;28;20559;-55
2022/11/12 08:28:36;;;;;;;62.17;28.23;;;8.70;99.90;;;;;;5059496;28;20032;-56
2022/11/12 08:31:09;;;;;;;55.58;26.88;;;8.70;99.90;;;;;;5057819;28;20032;-56
2022/11/12 08:33:35;;;;;;;43.28;24.85;;;8.70;99.90;;;;;;5056898;28;20041;-57
2022/11/12 08:36:09;;;;;;;43.72;24.60;;;8.70;99.90;;;;;;5059837;28;20387;-55
2022/11/12 08:38:35;;;;;;;54.78;25.35;;;8.70;99.90;;;;;;5056942;28;20032;-54
2022/11/12 08:41:02;;;;;;;53.53;24.00;;;8.60;99.90;;;;;;5041371;28;20052;-57
2022/11/12 08:43:28;;;;;;;45.42;24.95;;;8.60;99.90;;;;;;5021340;28;20087;-57
2022/11/12 08:45:57;;;;;;;42.33;23.15;;;8.60;99.90;;;;;;5056899;28;20064;-56
2022/11/12 08:48:23;;;;;;;49.50;25.30;;;8.60;99.90;;;;;;5037852;28;20096;-56
2022/11/12 08:50:49;;;;;;;57.55;25.42;;;8.60;99.90;;;;;;5056273;28;22078;-56
2022/11/12 08:53:15;;;;;;;43.83;25.40;;;8.60;99.90;;;;;;5045470;28;20094;-55
2022/11/12 08:55:40;;;;;;;50.03;24.85;;;8.60;99.90;;;;;;5055070;28;20399;-56
2022/11/12 08:58:06;;;;;;;54.70;25.23;;;8.50;99.90;;;;;;5059444;28;20036;-58
2022/11/12 09:00:35;;;;;;;36.47;22.90;;;8.50;99.90;;;;;;5053455;28;20299;-57
2022/11/12 09:03:02;;;;;;;52.88;25.40;;;8.50;99.90;;;;;;5052483;28;20055;-56
2022/11/12 09:05:28;;;;;;;46.97;25.15;;;8.50;99.90;;;;;;5053584;28;20036;-56
2022/11/12 09:08:08;;;;;;;39.80;22.38;;;8.50;99.90;;;;;;5059439;28;20040;-56
2022/11/12 09:10:34;;;;;;;39.85;22.75;;;8.50;99.90;;;;;;5062595;28;20840;-56
2022/11/12 09:13:00;;;;;;;42.90;24.17;;;8.50;99.90;;;;;;5060399;28;20040;-56
2022/11/12 09:15:27;;;;;;;41.85;23.05;;;8.50;99.90;;;;;;5058393;28;20029;-58
2022/11/12 09:17:57;;;;;;;49.53;26.00;;;8.50;99.90;;;;;;5059605;28;20036;-57
2022/11/12 09:20:23;;;;;;;41.22;22.38;;;8.50;99.90;;;;;;5052394;28;20052;-57
2022/11/12 09:22:50;;;;;;;59.72;24.85;;;8.50;99.90;;;;;;5023912;28;20226;-56
2022/11/12 09:25:15;;;;;;;53.50;25.27;;;8.60;99.90;;;;;;5031143;28;20036;-57
2022/11/12 09:27:41;;;;;;;56.90;26.80;;;8.50;99.90;;;;;;5055772;28;20101;-57
2022/11/12 09:30:07;;;;;;;67.80;30.23;;;8.60;99.90;;;;;;5029436;28;20045;-57
2022/11/12 09:32:33;;;;;;;43.85;24.00;;;8.60;99.90;;;;;;5029703;28;20040;-57
2022/11/12 09:34:59;;;;;;;52.42;26.80;;;8.60;99.90;;;;;;5046950;28;20028;-57
2022/11/12 09:37:24;;;;;;;50.67;28.67;;;8.60;99.90;;;;;;5050277;28;20039;-58
2022/11/12 09:39:50;;;;;;;73.75;32.38;;;8.60;99.90;;;;;;5045023;28;20032;-58
2022/11/12 09:42:19;;;;;;;61.70;30.75;;;8.60;99.90;;;;;;5032512;28;20123;-57
2022/11/12 09:45:01;;;;;;;82.82;34.13;;;8.60;99.90;;;;;;5051660;28;20041;-57
2022/11/12 09:47:56;;;;;;;59.75;30.48;;;8.60;99.90;;;;;;5048324;28;20044;-56
2022/11/12 09:50:36;;;;;;;64.38;31.55;;;8.60;99.90;;;;;;5059465;28;20426;-56
2022/11/12 09:53:25;;;;;;;52.75;28.52;;;8.60;99.90;;;;;;5058631;28;20564;-56
2022/11/12 09:55:51;;;;;;;96.18;35.78;;;8.70;99.90;;;;;;5054631;28;20506;-57
2022/11/12 09:58:18;;;;;;;72.18;33.38;;;8.70;99.90;;;;;;5014224;28;20047;-57
2022/11/12 10:00:56;;;;;;;71.47;32.42;;;8.70;99.90;;;;;;5037853;28;20044;-57
2022/11/12 10:03:56;;;;;;;67.35;32.45;;;8.80;99.90;;;;;;5051400;28;20301;-56
2022/11/12 10:06:28;;;;;;;72.93;32.78;;;8.80;99.90;;;;;;5058838;28;20052;-59
2022/11/12 10:09:03;;;;;;;66.10;33.38;;;8.80;99.90;;;;;;5038882;28;20036;-59
2022/11/12 10:14:51;;;;;;;80.45;37.20;;;8.80;99.90;;;;;;5041380;28;20040;-60
2022/11/12 10:17:36;;;;;;;;;;;8.90;99.90;;;;;;5060392;28;20047;-58
2022/11/12 10:20:07;;;;;;;63.38;31.73;;;8.90;99.90;;;;;;5058480;28;19916;-57
2022/11/12 10:22:45;;;;;;;73.55;36.05;;;8.90;99.90;;;;;;5059406;28;20095;-59
2022/11/12 10:25:19;;;;;;;75.57;37.00;;;9.00;99.90;;;;;;5052279;28;20051;-58
2022/11/12 10:27:47;;;;;;;70.88;36.63;;;8.90;99.90;;;;;;5056421;28;20029;-58
2022/11/12 10:30:18;;;;;;;73.50;37.88;;;9.00;99.90;;;;;;5050878;28;20037;-59
2022/11/12 10:32:46;;;;;;;71.55;35.78;;;9.10;99.90;;;;;;5049659;28;20041;-59
2022/11/12 10:35:16;;;;;;;78.93;37.15;;;9.10;99.90;;;;;;5056384;28;20503;-59
2022/11/12 10:37:57;;;;;;;90.65;40.35;;;9.10;99.90;;;;;;5064200;28;20478;-58
2022/11/12 10:40:28;;;;;;;71.63;36.75;;;9.20;99.90;;;;;;5045787;28;20036;-58
2022/11/12 10:43:18;;;;;;;85.72;41.05;;;9.20;99.90;;;;;;5066921;28;20041;-58
2022/11/12 10:45:46;;;;;;;87.50;39.00;;;9.30;99.90;;;;;;5058733;28;20033;-58
2022/11/12 10:48:27;;;;;;;88.40;41.72;;;9.30;99.90;;;;;;5041898;28;20055;-57
2022/11/12 10:50:53;;;;;;;84.68;40.78;;;9.30;99.90;;;;;;5053673;28;20051;-59
2022/11/12 10:53:48;;;;;;;88.90;41.50;;;9.40;99.90;;;;;;5058488;28;20415;-59
2022/11/12 10:56:28;;;;;;;89.70;43.90;;;9.30;99.90;;;;;;5022764;28;20044;-59
2022/11/12 10:59:12;;;;;;;75.25;37.40;;;9.30;99.90;;;;;;5042729;28;20052;-57
2022/11/12 11:01:38;;;;;;;79.97;40.53;;;9.30;99.90;;;;;;5038378;28;20080;-55
2022/11/12 11:04:14;;;;;;;80.53;38.00;;;9.40;99.90;;;;;;5057909;28;20043;-58
2022/11/12 11:06:40;;;;;;;91.50;43.17;;;9.40;99.90;;;;;;5049952;28;20037;-58
2022/11/12 11:09:11;;;;;;;88.75;44.03;;;9.40;99.90;;;;;;5041629;28;20525;-60
2022/11/12 11:11:48;;;;;;;87.00;43.00;;;9.40;99.90;;;;;;5065793;28;20636;-59
2022/11/12 11:14:26;;;;;;;87.00;43.28;;;9.40;99.90;;;;;;5039271;28;20044;-58
2022/11/12 11:16:58;;;;;;;95.68;46.78;;;9.30;99.90;;;;;;5062640;28;20836;-58
2022/11/12 11:19:40;;;;;;;80.07;40.47;;;9.40;99.90;;;;;;5046031;28;20471;-58
2022/11/12 11:22:41;;;;;;;80.03;40.08;;;9.40;99.90;;;;;;5060416;28;20039;-56
2022/11/12 11:25:14;;;;;;;94.85;42.92;;;9.50;99.90;;;;;;5029345;28;20053;-59
2022/11/12 11:28:06;;;;;;;88.03;41.93;;;9.50;99.90;;;;;;5049343;28;20076;-59
2022/11/12 11:30:33;;;;;;;93.20;42.70;;;9.50;99.90;;;;;;5041177;28;20057;-59
2022/11/12 11:33:22;;;;;;;103.65;46.78;;;9.50;99.90;;;;;;5026975;28;20679;-58
2022/11/12 11:36:25;;;;;;;75.53;36.42;;;9.50;99.90;;;;;;5062453;28;20041;-59
2022/11/12 11:39:13;;;;;;;104.75;44.90;;;9.50;99.90;;;;;;5062306;28;20052;-59
2022/11/12 11:41:52;;;;;;;89.40;42.70;;;9.50;99.90;;;;;;5044157;28;20048;-58
2022/11/12 11:44:43;;;;;;;87.25;44.00;;;9.50;99.90;;;;;;5064919;28;20145;-58
2022/11/12 11:47:28;;;;;;;91.82;45.22;;;9.50;99.90;;;;;;5064651;28;20502;-59
2022/11/12 11:50:30;;;;;;;75.95;41.28;;;9.50;99.90;;;;;;5056949;28;20130;-58
2022/11/12 11:53:22;;;;;;;82.85;42.63;;;9.50;99.90;;;;;;4982377;28;20722;-57
2022/11/12 11:55:59;;;;;;;81.47;42.60;;;9.50;99.90;;;;;;5057859;28;20040;-58
2022/11/12 11:58:46;;;;;;;85.40;44.20;;;9.50;99.90;;;;;;5060494;28;20109;-57
2022/11/12 12:01:39;;;;;;;77.10;40.80;;;9.50;99.90;;;;;;5051763;22;20174;-54
2022/11/12 12:04:14;;;;;;;89.50;43.58;;;9.50;99.90;;;;;;5049063;28;20079;-57
2022/11/12 12:07:14;;;;;;;83.80;42.80;;;9.60;99.90;;;;;;5046744;28;20061;-57
2022/11/12 12:09:45;;;;;;;99.82;48.45;;;9.60;99.90;;;;;;5040670;28;20499;-58
2022/11/12 12:12:32;;;;;;;88.15;46.97;;;9.70;99.90;;;;;;5051314;28;20044;-56
2022/11/12 12:15:23;;;;;;;86.15;44.40;;;9.70;99.90;;;;;;5057632;28;20078;-56
2022/11/12 12:18:09;;;;;;;77.90;41.25;;;9.70;99.90;;;;;;5066118;28;20040;-58
2022/11/12 12:20:57;;;;;;;87.15;46.30;;;9.70;99.90;;;;;;5030995;28;20116;-57
2022/11/12 12:23:34;;;;;;;86.00;45.63;;;9.80;99.90;;;;;;5069708;28;20037;-58
2022/11/12 12:26:05;;;;;;;93.22;48.47;;;9.80;99.90;;;;;;5059934;28;20033;-57
2022/11/12 12:28:38;;;;;;;81.82;45.35;;;9.80;99.90;;;;;;5059382;28;20049;-56
2022/11/12 12:31:13;;;;;;;88.28;47.97;;;9.90;99.90;;;;;;5066706;28;20048;-57
2022/11/12 12:33:50;;;;;;;76.55;47.20;;;9.90;99.90;;;;;;5057430;28;20407;-57
2022/11/12 12:36:29;;;;;;;75.90;44.40;;;10.00;99.90;;;;;;5050714;28;20049;-57
2022/11/12 12:39:18;;;;;;;83.03;47.92;;;10.00;99.90;;;;;;5041094;28;20036;-55
2022/11/12 12:42:08;;;;;;;69.18;44.88;;;10.00;99.90;;;;;;5045867;28;20043;-57
2022/11/12 12:45:00;;;;;;;75.63;46.45;;;10.00;99.90;;;;;;5058532;28;20052;-57
2022/11/12 12:47:31;;;;;;;73.97;43.75;;;10.00;99.90;;;;;;5063341;28;20116;-57
2022/11/12 12:49:59;;;;;;;68.18;39.97;;;10.10;99.90;;;;;;5062879;28;20102;-57
2022/11/12 12:52:24;;;;;;;80.57;47.22;;;10.10;99.90;;;;;;5026902;28;20115;-57
2022/11/12 12:54:50;;;;;;;92.25;47.88;;;10.20;99.90;;;;;;5039938;28;20127;-56
2022/11/12 12:57:38;;;;;;;77.53;45.20;;;10.20;99.90;;;;;;5063645;28;20045;-57
2022/11/12 13:00:28;;;;;;;88.53;47.10;;;10.20;99.90;;;;;;5065844;28;20051;-57
2022/11/12 13:02:54;;;;;;;87.70;48.50;;;10.20;99.90;;;;;;5032514;28;20044;-58
2022/11/12 13:05:35;;;;;;;67.65;39.05;;;10.20;99.90;;;;;;5071962;28;20032;-57
2022/11/12 13:08:18;;;;;;;73.70;43.47;;;10.10;99.90;;;;;;5071090;28;20032;-57
2022/11/12 13:10:46;;;;;;;75.72;46.05;;;10.10;99.90;;;;;;5069032;28;20081;-57
2022/11/12 13:13:20;;;;;;;70.65;44.38;;;10.10;99.90;;;;;;5059410;28;20048;-56
2022/11/12 13:15:52;;;;;;;68.63;41.55;;;10.10;99.90;;;;;;5072428;28;20043;-57
2022/11/12 13:18:36;;;;;;;64.07;40.30;;;10.10;99.90;;;;;;5063177;28;20182;-57
2022/11/12 13:21:07;;;;;;;;;;;10.10;99.90;;;;;;5076832;28;20044;-57